PWSweather.com
Personal Weather Stations
Station Observations
UWIDEPER1
Brown County, Depere, WI 54115

Brown CountyDepere, WI 54115

Lat: 44.44, Lon: -88.05

Elevation: 610

Station Type: Acurite 5in1

Latest ConditionsUpdated 12:00:01 PM CST Tuesday, Nov 12, 2019
Currently Today's Max Today's Min Today's Average
Temperature 20.8°F-6.2°C 20.8°F-6.2°C 7.2°F-13.8°C 10.9°F-11.7°C
Dew Point 4.7°F-15.2°C 4.7°F-15.2°C 0.8°F-17.3°C 2.1°F-16.6°C
Winds 5.8 mph WNW9.3 kmh WNW 9.2 mph -14.8 kmh - - 5.1 mph 8.2 kmh
Wind Gusts 13.8 mph22.2 kmh 16.1 mph25.9 kmh - -
Humidity 49% 75% 46% 68%
Pressure 30.42 in1030.1 mb 30.46 in1031.5 mb 30.39 in1029.1 mb -
Hour Temp Dew Point Humidity Winds Wind Gusts Pressure Precip Precip Rate Daily Precip Total
12:00 PM 20.8°F-6.2°C 4.7°F-15.2°C 49% 5.8 mph WNW9.3 kmh WNW 13.8 mph22.2 kmh 30.42 in1030.1 mb - 0.00 in0.0 mm 0.00 in0.0 mm
11:55 AM 20.4°F-6.4°C 4.3°F-15.4°C 49% 4.6 mph WNW7.4 kmh WNW 11.5 mph18.5 kmh 30.42 in1030.1 mb - 0.00 in0.0 mm 0.00 in0.0 mm
11:50 AM 20.5°F-6.4°C 3.9°F-15.6°C 48% 5.8 mph W9.3 kmh W 9.2 mph14.8 kmh 30.42 in1030.1 mb - 0.00 in0.0 mm 0.00 in0.0 mm
11:45 AM 20.7°F-6.3°C 3.6°F-15.8°C 47% 5.8 mph WNW9.3 kmh WNW 11.5 mph18.5 kmh 30.43 in1030.5 mb - 0.00 in0.0 mm 0.00 in0.0 mm
11:40 AM 20.7°F-6.3°C 3.6°F-15.8°C 47% 5.8 mph WSW9.3 kmh WSW 12.7 mph20.4 kmh 30.42 in1030.1 mb - 0.00 in0.0 mm 0.00 in0.0 mm
11:35 AM 20.5°F-6.4°C 3.9°F-15.6°C 48% 4.6 mph WNW7.4 kmh WNW 10.4 mph16.7 kmh 30.43 in1030.5 mb - 0.00 in0.0 mm 0.00 in0.0 mm
11:30 AM 20.3°F-6.5°C 3.7°F-15.7°C 48% 8.1 mph WNW13.0 kmh WNW 11.5 mph18.5 kmh 30.43 in1030.5 mb - 0.00 in0.0 mm 0.00 in0.0 mm
11:25 AM 20.3°F-6.5°C 3.7°F-15.7°C 48% 8.1 mph WNW13.0 kmh WNW 13.8 mph22.2 kmh 30.44 in1030.8 mb - 0.00 in0.0 mm 0.00 in0.0 mm
11:20 AM 20.7°F-6.3°C 3.1°F-16.1°C 46% 5.8 mph NW9.3 kmh NW 10.4 mph16.7 kmh 30.44 in1030.8 mb - 0.00 in0.0 mm 0.00 in0.0 mm
11:15 AM 20.3°F-6.5°C 3.7°F-15.7°C 48% 6.9 mph WNW11.1 kmh WNW 11.5 mph18.5 kmh 30.44 in1030.8 mb - 0.00 in0.0 mm 0.00 in0.0 mm
11:10 AM 20.1°F-6.6°C 3.5°F-15.8°C 48% 5.8 mph NW9.3 kmh NW 16.1 mph25.9 kmh 30.44 in1030.8 mb - 0.00 in0.0 mm 0.00 in0.0 mm
11:00 AM 20.1°F-6.6°C 3.5°F-15.8°C 48% 5.8 mph N9.3 kmh N 12.7 mph20.4 kmh 30.45 in1031.2 mb - 0.00 in0.0 mm 0.00 in0.0 mm
10:55 AM 19.6°F-6.9°C 3.9°F-15.6°C 50% 6.9 mph W11.1 kmh W 11.5 mph18.5 kmh 30.44 in1030.8 mb - 0.00 in0.0 mm 0.00 in0.0 mm
10:50 AM 18.8°F-7.3°C 4.1°F-15.5°C 52% 4.6 mph NW7.4 kmh NW 8.1 mph13.0 kmh 30.44 in1030.8 mb - 0.00 in0.0 mm 0.00 in0.0 mm
10:45 AM 18.0°F-7.8°C 3.7°F-15.7°C 53% 6.9 mph WNW11.1 kmh WNW 12.7 mph20.4 kmh 30.45 in1031.2 mb - 0.00 in0.0 mm 0.00 in0.0 mm
10:40 AM 17.6°F-8.0°C 3.8°F-15.7°C 54% 5.8 mph NW9.3 kmh NW 11.5 mph18.5 kmh 30.45 in1031.2 mb - 0.00 in0.0 mm 0.00 in0.0 mm
10:35 AM 17.4°F-8.1°C 4.3°F-15.4°C 56% 4.6 mph NW7.4 kmh NW 9.2 mph14.8 kmh 30.45 in1031.2 mb - 0.00 in0.0 mm 0.00 in0.0 mm
10:30 AM 16.8°F-8.4°C 4.2°F-15.4°C 57% 6.9 mph W11.1 kmh W 12.7 mph20.4 kmh 30.45 in1031.2 mb - 0.00 in0.0 mm 0.00 in0.0 mm
10:25 AM 16.3°F-8.7°C 3.7°F-15.7°C 57% 5.8 mph WNW9.3 kmh WNW 12.7 mph20.4 kmh 30.45 in1031.2 mb - 0.00 in0.0 mm 0.00 in0.0 mm
10:20 AM 16.3°F-8.7°C 4.4°F-15.3°C 59% 3.5 mph W5.6 kmh W 12.7 mph20.4 kmh 30.45 in1031.2 mb - 0.00 in0.0 mm 0.00 in0.0 mm
10:15 AM 15.2°F-9.3°C 3.8°F-15.7°C 60% 5.8 mph WNW9.3 kmh WNW 10.4 mph16.7 kmh 30.45 in1031.2 mb - 0.00 in0.0 mm 0.00 in0.0 mm
10:10 AM 14.7°F-9.6°C 3.7°F-15.7°C 61% 5.8 mph NW9.3 kmh NW 12.7 mph20.4 kmh 30.45 in1031.2 mb - 0.00 in0.0 mm 0.00 in0.0 mm
10:00 AM 14.0°F-10.0°C 3.7°F-15.7°C 63% 4.6 mph W7.4 kmh W 10.4 mph16.7 kmh 30.45 in1031.2 mb - 0.00 in0.0 mm 0.00 in0.0 mm
09:55 AM 13.9°F-10.1°C 3.6°F-15.8°C 63% 5.8 mph NW9.3 kmh NW 11.5 mph18.5 kmh 30.45 in1031.2 mb - 0.00 in0.0 mm 0.00 in0.0 mm
09:50 AM 13.5°F-10.3°C 3.5°F-15.8°C 64% 2.3 mph W3.7 kmh W 8.1 mph13.0 kmh 30.45 in1031.2 mb - 0.00 in0.0 mm 0.00 in0.0 mm
09:45 AM 13.3°F-10.4°C 3.4°F-15.9°C 64% 5.8 mph WNW9.3 kmh WNW 13.8 mph22.2 kmh 30.45 in1031.2 mb - 0.00 in0.0 mm 0.00 in0.0 mm
09:40 AM 13.1°F-10.5°C 3.2°F-16.0°C 64% 4.6 mph W7.4 kmh W 6.9 mph11.1 kmh 30.44 in1030.8 mb - 0.00 in0.0 mm 0.00 in0.0 mm
09:35 AM 13.1°F-10.5°C 2.9°F-16.2°C 63% 3.5 mph WNW5.6 kmh WNW 9.2 mph14.8 kmh 30.45 in1031.2 mb - 0.00 in0.0 mm 0.00 in0.0 mm
09:30 AM 13.3°F-10.4°C 3.3°F-15.9°C 64% 3.5 mph W5.6 kmh W 11.5 mph18.5 kmh 30.45 in1031.2 mb - 0.00 in0.0 mm 0.00 in0.0 mm
09:25 AM 12.8°F-10.7°C 2.9°F-16.2°C 64% 6.9 mph NW11.1 kmh NW 10.4 mph16.7 kmh 30.45 in1031.2 mb - 0.00 in0.0 mm 0.00 in0.0 mm
09:20 AM 12.0°F-11.1°C 2.5°F-16.4°C 65% 6.9 mph NW11.1 kmh NW 13.8 mph22.2 kmh 30.45 in1031.2 mb - 0.00 in0.0 mm 0.00 in0.0 mm
09:15 AM 11.7°F-11.3°C 2.8°F-16.2°C 67% 4.6 mph W7.4 kmh W 9.2 mph14.8 kmh 30.45 in1031.2 mb - 0.00 in0.0 mm 0.00 in0.0 mm
09:10 AM 11.5°F-11.4°C 2.3°F-16.5°C 66% 6.9 mph WNW11.1 kmh WNW 15.0 mph24.1 kmh 30.45 in1031.2 mb - 0.00 in0.0 mm 0.00 in0.0 mm
09:00 AM 11.1°F-11.6°C 2.0°F-16.7°C 66% 3.5 mph W5.6 kmh W 8.1 mph13.0 kmh 30.45 in1031.2 mb - 0.00 in0.0 mm 0.00 in0.0 mm
08:55 AM 10.9°F-11.7°C 2.4°F-16.4°C 68% 3.5 mph W5.6 kmh W 12.7 mph20.4 kmh 30.45 in1031.2 mb - 0.00 in0.0 mm 0.00 in0.0 mm
08:50 AM 10.9°F-11.7°C 2.4°F-16.4°C 68% 6.9 mph WNW11.1 kmh WNW 15.0 mph24.1 kmh 30.46 in1031.5 mb - 0.00 in0.0 mm 0.00 in0.0 mm
08:45 AM 10.5°F-11.9°C 2.1°F-16.6°C 68% 6.9 mph W11.1 kmh W 12.7 mph20.4 kmh 30.46 in1031.5 mb - 0.00 in0.0 mm 0.00 in0.0 mm
08:40 AM 10.2°F-12.1°C 1.7°F-16.8°C 68% 4.6 mph WNW7.4 kmh WNW 8.1 mph13.0 kmh 30.45 in1031.2 mb - 0.00 in0.0 mm 0.00 in0.0 mm
08:35 AM 10.0°F-12.2°C 1.9°F-16.7°C 69% 8.1 mph W13.0 kmh W 12.7 mph20.4 kmh 30.45 in1031.2 mb - 0.00 in0.0 mm 0.00 in0.0 mm
08:30 AM 9.9°F-12.3°C 1.7°F-16.8°C 69% 4.6 mph WNW7.4 kmh WNW 9.2 mph14.8 kmh 30.46 in1031.5 mb - 0.00 in0.0 mm 0.00 in0.0 mm
08:25 AM 9.7°F-12.4°C 1.8°F-16.8°C 70% 4.6 mph WNW7.4 kmh WNW 10.4 mph16.7 kmh 30.45 in1031.2 mb - 0.00 in0.0 mm 0.00 in0.0 mm
08:20 AM 9.4°F-12.6°C 1.6°F-16.9°C 70% 5.8 mph W9.3 kmh W 12.7 mph20.4 kmh 30.46 in1031.5 mb - 0.00 in0.0 mm 0.00 in0.0 mm
08:15 AM 9.3°F-12.6°C 1.4°F-17.0°C 70% 5.8 mph WSW9.3 kmh WSW 11.5 mph18.5 kmh 30.46 in1031.5 mb - 0.00 in0.0 mm 0.00 in0.0 mm
08:10 AM 9.0°F-12.8°C 1.2°F-17.1°C 70% 4.6 mph WNW7.4 kmh WNW 9.2 mph14.8 kmh 30.45 in1031.2 mb - 0.00 in0.0 mm 0.00 in0.0 mm
08:00 AM 8.8°F-12.9°C 1.3°F-17.1°C 71% 5.8 mph W9.3 kmh W 9.2 mph14.8 kmh 30.45 in1031.2 mb - 0.00 in0.0 mm 0.00 in0.0 mm
07:55 AM 8.6°F-13.0°C 1.4°F-17.0°C 72% 4.6 mph WNW7.4 kmh WNW 10.4 mph16.7 kmh 30.46 in1031.5 mb - 0.00 in0.0 mm 0.00 in0.0 mm
07:50 AM 8.3°F-13.2°C 1.1°F-17.2°C 72% 4.6 mph NW7.4 kmh NW 10.4 mph16.7 kmh 30.45 in1031.2 mb - 0.00 in0.0 mm 0.00 in0.0 mm
07:45 AM 8.1°F-13.3°C 1.2°F-17.1°C 73% 5.8 mph W9.3 kmh W 10.4 mph16.7 kmh 30.45 in1031.2 mb - 0.00 in0.0 mm 0.00 in0.0 mm
07:40 AM 7.9°F-13.4°C 1.0°F-17.2°C 73% 5.8 mph WNW9.3 kmh WNW 9.2 mph14.8 kmh 30.45 in1031.2 mb - 0.00 in0.0 mm 0.00 in0.0 mm
07:35 AM 7.9°F-13.4°C 1.0°F-17.2°C 73% 5.8 mph W9.3 kmh W 12.7 mph20.4 kmh 30.45 in1031.2 mb - 0.00 in0.0 mm 0.00 in0.0 mm
07:30 AM 7.7°F-13.5°C 0.8°F-17.3°C 73% 5.8 mph WNW9.3 kmh WNW 12.7 mph20.4 kmh 30.45 in1031.2 mb - 0.00 in0.0 mm 0.00 in0.0 mm
07:25 AM 7.5°F-13.6°C 1.0°F-17.2°C 74% 5.8 mph WNW9.3 kmh WNW 10.4 mph16.7 kmh 30.45 in1031.2 mb - 0.00 in0.0 mm 0.00 in0.0 mm
07:20 AM 7.5°F-13.6°C 1.0°F-17.2°C 74% 4.6 mph W7.4 kmh W 10.4 mph16.7 kmh 30.45 in1031.2 mb - 0.00 in0.0 mm 0.00 in0.0 mm
07:15 AM 7.4°F-13.7°C 0.9°F-17.3°C 74% 3.5 mph W5.6 kmh W 11.5 mph18.5 kmh 30.45 in1031.2 mb - 0.00 in0.0 mm 0.00 in0.0 mm
07:10 AM 7.3°F-13.7°C 0.8°F-17.3°C 74% 3.5 mph WNW5.6 kmh WNW 5.8 mph9.3 kmh 30.45 in1031.2 mb - 0.00 in0.0 mm 0.00 in0.0 mm
07:00 AM 7.3°F-13.7°C 1.1°F-17.2°C 75% 4.6 mph WNW7.4 kmh WNW 6.9 mph11.1 kmh 30.45 in1031.2 mb - 0.00 in0.0 mm 0.00 in0.0 mm
06:55 AM 7.2°F-13.8°C 0.9°F-17.3°C 75% 4.6 mph WNW7.4 kmh WNW 10.4 mph16.7 kmh 30.44 in1030.8 mb - 0.00 in0.0 mm 0.00 in0.0 mm
06:50 AM 7.2°F-13.8°C 0.9°F-17.3°C 75% 3.5 mph W5.6 kmh W 11.5 mph18.5 kmh 30.44 in1030.8 mb - 0.00 in0.0 mm 0.00 in0.0 mm
06:45 AM 7.3°F-13.7°C 1.0°F-17.2°C 75% 3.5 mph WNW5.6 kmh WNW 6.9 mph11.1 kmh 30.44 in1030.8 mb - 0.00 in0.0 mm 0.00 in0.0 mm
06:40 AM 7.3°F-13.7°C 1.1°F-17.2°C 75% 4.6 mph WNW7.4 kmh WNW 15.0 mph24.1 kmh 30.43 in1030.5 mb - 0.00 in0.0 mm 0.00 in0.0 mm
06:35 AM 7.3°F-13.7°C 1.1°F-17.2°C 75% 3.5 mph WNW5.6 kmh WNW 10.4 mph16.7 kmh 30.43 in1030.5 mb - 0.00 in0.0 mm 0.00 in0.0 mm
06:30 AM 7.3°F-13.7°C 1.1°F-17.2°C 75% 3.5 mph WNW5.6 kmh WNW 6.9 mph11.1 kmh 30.43 in1030.5 mb - 0.00 in0.0 mm 0.00 in0.0 mm
06:25 AM 7.3°F-13.7°C 1.1°F-17.2°C 75% 3.5 mph WNW5.6 kmh WNW 6.9 mph11.1 kmh 30.43 in1030.5 mb - 0.00 in0.0 mm 0.00 in0.0 mm
06:20 AM 7.3°F-13.7°C 1.1°F-17.2°C 75% 3.5 mph NW5.6 kmh NW 8.1 mph13.0 kmh 30.44 in1030.8 mb - 0.00 in0.0 mm 0.00 in0.0 mm
06:15 AM 7.5°F-13.6°C 1.2°F-17.1°C 75% 2.3 mph WNW3.7 kmh WNW 4.6 mph7.4 kmh 30.44 in1030.8 mb - 0.00 in0.0 mm 0.00 in0.0 mm
06:10 AM 7.5°F-13.6°C 1.2°F-17.1°C 75% 4.6 mph WNW7.4 kmh WNW 12.7 mph20.4 kmh 30.43 in1030.5 mb - 0.00 in0.0 mm 0.00 in0.0 mm
06:00 AM 7.5°F-13.6°C 1.2°F-17.1°C 75% 3.5 mph NW5.6 kmh NW 10.4 mph16.7 kmh 30.43 in1030.5 mb - 0.00 in0.0 mm 0.00 in0.0 mm
05:55 AM 7.5°F-13.6°C 1.2°F-17.1°C 75% 4.6 mph WNW7.4 kmh WNW 11.5 mph18.5 kmh 30.43 in1030.5 mb - 0.00 in0.0 mm 0.00 in0.0 mm
05:50 AM 7.7°F-13.5°C 1.4°F-17.0°C 75% 3.5 mph WNW5.6 kmh WNW 10.4 mph16.7 kmh 30.43 in1030.5 mb - 0.00 in0.0 mm 0.00 in0.0 mm
05:45 AM 7.7°F-13.5°C 1.4°F-17.0°C 75% 2.3 mph W3.7 kmh W 5.8 mph9.3 kmh 30.44 in1030.8 mb - 0.00 in0.0 mm 0.00 in0.0 mm
05:40 AM 7.7°F-13.5°C 1.1°F-17.2°C 74% 4.6 mph NW7.4 kmh NW 10.4 mph16.7 kmh 30.43 in1030.5 mb - 0.00 in0.0 mm 0.00 in0.0 mm
05:35 AM 7.8°F-13.4°C 1.2°F-17.1°C 74% 4.6 mph NW7.4 kmh NW 11.5 mph18.5 kmh 30.43 in1030.5 mb - 0.00 in0.0 mm 0.00 in0.0 mm
05:30 AM 7.9°F-13.4°C 1.3°F-17.1°C 74% 5.8 mph WNW9.3 kmh WNW 10.4 mph16.7 kmh 30.43 in1030.5 mb - 0.00 in0.0 mm 0.00 in0.0 mm
05:25 AM 7.9°F-13.4°C 1.3°F-17.1°C 74% 5.8 mph W9.3 kmh W 13.8 mph22.2 kmh 30.43 in1030.5 mb - 0.00 in0.0 mm 0.00 in0.0 mm
05:20 AM 7.9°F-13.4°C 1.3°F-17.1°C 74% 5.8 mph WNW9.3 kmh WNW 10.4 mph16.7 kmh 30.43 in1030.5 mb - 0.00 in0.0 mm 0.00 in0.0 mm
05:15 AM 8.1°F-13.3°C 1.2°F-17.1°C 73% 6.9 mph WNW11.1 kmh WNW 12.7 mph20.4 kmh 30.43 in1030.5 mb - 0.00 in0.0 mm 0.00 in0.0 mm
05:10 AM 8.2°F-13.2°C 1.3°F-17.1°C 73% 3.5 mph NW5.6 kmh NW 6.9 mph11.1 kmh 30.43 in1030.5 mb - 0.00 in0.0 mm 0.00 in0.0 mm
05:00 AM 8.2°F-13.2°C 1.6°F-16.9°C 74% 4.6 mph NW7.4 kmh NW 11.5 mph18.5 kmh 30.42 in1030.1 mb - 0.00 in0.0 mm 0.00 in0.0 mm
04:55 AM 8.1°F-13.3°C 1.5°F-16.9°C 74% 5.8 mph WNW9.3 kmh WNW 9.2 mph14.8 kmh 30.42 in1030.1 mb - 0.00 in0.0 mm 0.00 in0.0 mm
04:50 AM 8.1°F-13.3°C 1.5°F-16.9°C 74% 4.6 mph NW7.4 kmh NW 9.2 mph14.8 kmh 30.43 in1030.5 mb - 0.00 in0.0 mm 0.00 in0.0 mm
04:45 AM 8.2°F-13.2°C 1.4°F-17.0°C 73% 3.5 mph W5.6 kmh W 8.1 mph13.0 kmh 30.43 in1030.5 mb - 0.00 in0.0 mm 0.00 in0.0 mm
04:40 AM 8.2°F-13.2°C 1.7°F-16.8°C 74% 3.5 mph WNW5.6 kmh WNW 8.1 mph13.0 kmh 30.43 in1030.5 mb - 0.00 in0.0 mm 0.00 in0.0 mm
04:35 AM 8.4°F-13.1°C 1.5°F-16.9°C 73% 3.5 mph WNW5.6 kmh WNW 10.4 mph16.7 kmh 30.43 in1030.5 mb - 0.00 in0.0 mm 0.00 in0.0 mm
04:30 AM 8.2°F-13.2°C 1.4°F-17.0°C 73% 4.6 mph WNW7.4 kmh WNW 9.2 mph14.8 kmh 30.43 in1030.5 mb - 0.00 in0.0 mm 0.00 in0.0 mm
04:25 AM 8.4°F-13.1°C 1.5°F-16.9°C 73% 4.6 mph NW7.4 kmh NW 11.5 mph18.5 kmh 30.43 in1030.5 mb - 0.00 in0.0 mm 0.00 in0.0 mm
04:20 AM 8.2°F-13.2°C 1.4°F-17.0°C 73% 5.8 mph WNW9.3 kmh WNW 10.4 mph16.7 kmh 30.43 in1030.5 mb - 0.00 in0.0 mm 0.00 in0.0 mm
04:15 AM 8.4°F-13.1°C 1.5°F-16.9°C 73% 4.6 mph W7.4 kmh W 9.2 mph14.8 kmh 30.42 in1030.1 mb - 0.00 in0.0 mm 0.00 in0.0 mm
04:10 AM 8.4°F-13.1°C 1.5°F-16.9°C 73% 3.5 mph W5.6 kmh W 8.1 mph13.0 kmh 30.42 in1030.1 mb - 0.00 in0.0 mm 0.00 in0.0 mm
04:00 AM 8.4°F-13.1°C 1.5°F-16.9°C 73% 4.6 mph WNW7.4 kmh WNW 10.4 mph16.7 kmh 30.42 in1030.1 mb - 0.00 in0.0 mm 0.00 in0.0 mm
03:55 AM 8.6°F-13.0°C 1.7°F-16.8°C 73% 3.5 mph W5.6 kmh W 6.9 mph11.1 kmh 30.42 in1030.1 mb - 0.00 in0.0 mm 0.00 in0.0 mm
03:50 AM 8.6°F-13.0°C 1.7°F-16.8°C 73% 5.8 mph NW9.3 kmh NW 10.4 mph16.7 kmh 30.42 in1030.1 mb - 0.00 in0.0 mm 0.00 in0.0 mm
03:45 AM 8.6°F-13.0°C 1.7°F-16.8°C 73% 4.6 mph W7.4 kmh W 9.2 mph14.8 kmh 30.42 in1030.1 mb - 0.00 in0.0 mm 0.00 in0.0 mm
03:40 AM 8.7°F-12.9°C 1.8°F-16.8°C 73% 4.6 mph W7.4 kmh W 11.5 mph18.5 kmh 30.42 in1030.1 mb - 0.00 in0.0 mm 0.00 in0.0 mm
03:35 AM 8.8°F-12.9°C 1.6°F-16.9°C 72% 3.5 mph W5.6 kmh W 8.1 mph13.0 kmh 30.41 in1029.8 mb - 0.00 in0.0 mm 0.00 in0.0 mm
03:30 AM 8.8°F-12.9°C 1.6°F-16.9°C 72% 4.6 mph WNW7.4 kmh WNW 9.2 mph14.8 kmh 30.42 in1030.1 mb - 0.00 in0.0 mm 0.00 in0.0 mm
03:25 AM 8.8°F-12.9°C 1.6°F-16.9°C 72% 5.8 mph W9.3 kmh W 13.8 mph22.2 kmh 30.41 in1029.8 mb - 0.00 in0.0 mm 0.00 in0.0 mm
03:20 AM 8.9°F-12.8°C 1.7°F-16.8°C 72% 4.6 mph W7.4 kmh W 10.4 mph16.7 kmh 30.41 in1029.8 mb - 0.00 in0.0 mm 0.00 in0.0 mm
03:15 AM 9.0°F-12.8°C 1.8°F-16.8°C 72% 5.8 mph NW9.3 kmh NW 12.7 mph20.4 kmh 30.42 in1030.1 mb - 0.00 in0.0 mm 0.00 in0.0 mm
03:10 AM 9.0°F-12.8°C 1.8°F-16.8°C 72% 4.6 mph WNW7.4 kmh WNW 12.7 mph20.4 kmh 30.42 in1030.1 mb - 0.00 in0.0 mm 0.00 in0.0 mm
03:00 AM 9.0°F-12.8°C 1.5°F-16.9°C 71% 3.5 mph NW5.6 kmh NW 8.1 mph13.0 kmh 30.42 in1030.1 mb - 0.00 in0.0 mm 0.00 in0.0 mm
02:55 AM 9.1°F-12.7°C 1.6°F-16.9°C 71% 6.9 mph WNW11.1 kmh WNW 13.8 mph22.2 kmh 30.42 in1030.1 mb - 0.00 in0.0 mm 0.00 in0.0 mm
02:50 AM 9.1°F-12.7°C 1.6°F-16.9°C 71% 4.6 mph WNW7.4 kmh WNW 8.1 mph13.0 kmh 30.42 in1030.1 mb - 0.00 in0.0 mm 0.00 in0.0 mm
02:45 AM 9.3°F-12.6°C 1.8°F-16.8°C 71% 3.5 mph NW5.6 kmh NW 10.4 mph16.7 kmh 30.41 in1029.8 mb - 0.00 in0.0 mm 0.00 in0.0 mm
02:40 AM 9.2°F-12.7°C 1.7°F-16.8°C 71% 8.1 mph NW13.0 kmh NW 13.8 mph22.2 kmh 30.41 in1029.8 mb - 0.00 in0.0 mm 0.00 in0.0 mm
02:35 AM 9.3°F-12.6°C 1.8°F-16.8°C 71% 5.8 mph WNW9.3 kmh WNW 12.7 mph20.4 kmh 30.41 in1029.8 mb - 0.00 in0.0 mm 0.00 in0.0 mm
02:30 AM 9.3°F-12.6°C 1.8°F-16.8°C 71% 5.8 mph W9.3 kmh W 11.5 mph18.5 kmh 30.41 in1029.8 mb - 0.00 in0.0 mm 0.00 in0.0 mm
02:25 AM 9.5°F-12.5°C 2.0°F-16.7°C 71% 4.6 mph NW7.4 kmh NW 10.4 mph16.7 kmh 30.41 in1029.8 mb - 0.00 in0.0 mm 0.00 in0.0 mm
02:20 AM 9.5°F-12.5°C 2.0°F-16.7°C 71% 6.9 mph WNW11.1 kmh WNW 13.8 mph22.2 kmh 30.41 in1029.8 mb - 0.00 in0.0 mm 0.00 in0.0 mm
02:15 AM 9.5°F-12.5°C 1.7°F-16.8°C 70% 5.8 mph WNW9.3 kmh WNW 11.5 mph18.5 kmh 30.41 in1029.8 mb - 0.00 in0.0 mm 0.00 in0.0 mm
02:10 AM 9.7°F-12.4°C 1.9°F-16.7°C 70% 4.6 mph WNW7.4 kmh WNW 9.2 mph14.8 kmh 30.41 in1029.8 mb - 0.00 in0.0 mm 0.00 in0.0 mm
02:00 AM 9.7°F-12.4°C 1.9°F-16.7°C 70% 5.8 mph NW9.3 kmh NW 15.0 mph24.1 kmh 30.41 in1029.8 mb - 0.00 in0.0 mm 0.00 in0.0 mm
01:55 AM 9.7°F-12.4°C 2.2°F-16.6°C 71% 5.8 mph W9.3 kmh W 10.4 mph16.7 kmh 30.41 in1029.8 mb - 0.00 in0.0 mm 0.00 in0.0 mm
01:50 AM 9.7°F-12.4°C 1.9°F-16.7°C 70% 4.6 mph W7.4 kmh W 9.2 mph14.8 kmh 30.41 in1029.8 mb - 0.00 in0.0 mm 0.00 in0.0 mm
01:45 AM 9.7°F-12.4°C 1.9°F-16.7°C 70% 5.8 mph WNW9.3 kmh WNW 9.2 mph14.8 kmh 30.41 in1029.8 mb - 0.00 in0.0 mm 0.00 in0.0 mm
01:40 AM 9.7°F-12.4°C 1.9°F-16.7°C 70% 6.9 mph NW11.1 kmh NW 10.4 mph16.7 kmh 30.41 in1029.8 mb - 0.00 in0.0 mm 0.00 in0.0 mm
01:35 AM 9.9°F-12.3°C 2.0°F-16.7°C 70% 4.6 mph W7.4 kmh W 10.4 mph16.7 kmh 30.41 in1029.8 mb - 0.00 in0.0 mm 0.00 in0.0 mm
01:30 AM 9.9°F-12.3°C 2.0°F-16.7°C 70% 6.9 mph NW11.1 kmh NW 12.7 mph20.4 kmh 30.41 in1029.8 mb - 0.00 in0.0 mm 0.00 in0.0 mm
01:25 AM 9.9°F-12.3°C 2.0°F-16.7°C 70% 3.5 mph WNW5.6 kmh WNW 6.9 mph11.1 kmh 30.40 in1029.5 mb - 0.00 in0.0 mm 0.00 in0.0 mm
01:20 AM 9.9°F-12.3°C 2.0°F-16.7°C 70% 3.5 mph WNW5.6 kmh WNW 15.0 mph24.1 kmh 30.40 in1029.5 mb - 0.00 in0.0 mm 0.00 in0.0 mm
01:15 AM 10.0°F-12.2°C 2.2°F-16.6°C 70% 5.8 mph WNW9.3 kmh WNW 12.7 mph20.4 kmh 30.40 in1029.5 mb - 0.00 in0.0 mm 0.00 in0.0 mm
01:10 AM 10.2°F-12.1°C 2.4°F-16.4°C 70% 3.5 mph WNW5.6 kmh WNW 8.1 mph13.0 kmh 30.40 in1029.5 mb - 0.00 in0.0 mm 0.00 in0.0 mm
01:00 AM 10.4°F-12.0°C 2.5°F-16.4°C 70% 4.6 mph WNW7.4 kmh WNW 9.2 mph14.8 kmh 30.41 in1029.8 mb - 0.00 in0.0 mm 0.00 in0.0 mm
12:55 AM 10.4°F-12.0°C 2.2°F-16.6°C 69% 4.6 mph WNW7.4 kmh WNW 10.4 mph16.7 kmh 30.41 in1029.8 mb - 0.00 in0.0 mm 0.00 in0.0 mm
12:50 AM 10.4°F-12.0°C 2.2°F-16.6°C 69% 5.8 mph WNW9.3 kmh WNW 12.7 mph20.4 kmh 30.41 in1029.8 mb - 0.00 in0.0 mm 0.00 in0.0 mm
12:45 AM 10.5°F-11.9°C 2.3°F-16.5°C 69% 5.8 mph W9.3 kmh W 11.5 mph18.5 kmh 30.41 in1029.8 mb - 0.00 in0.0 mm 0.00 in0.0 mm
12:40 AM 10.6°F-11.9°C 2.4°F-16.4°C 69% 3.5 mph WNW5.6 kmh WNW 8.1 mph13.0 kmh 30.41 in1029.8 mb - 0.00 in0.0 mm 0.00 in0.0 mm
12:35 AM 10.6°F-11.9°C 2.4°F-16.4°C 69% 5.8 mph NW9.3 kmh NW 15.0 mph24.1 kmh 30.40 in1029.5 mb - 0.00 in0.0 mm 0.00 in0.0 mm
12:30 AM 10.8°F-11.8°C 2.3°F-16.5°C 68% 3.5 mph NW5.6 kmh NW 11.5 mph18.5 kmh 30.40 in1029.5 mb - 0.00 in0.0 mm 0.00 in0.0 mm
12:25 AM 10.8°F-11.8°C 2.6°F-16.3°C 69% 5.8 mph W9.3 kmh W 11.5 mph18.5 kmh 30.40 in1029.5 mb - 0.00 in0.0 mm 0.00 in0.0 mm
12:20 AM 10.9°F-11.7°C 2.8°F-16.2°C 69% 9.2 mph W14.8 kmh W 13.8 mph22.2 kmh 30.41 in1029.8 mb - 0.00 in0.0 mm 0.00 in0.0 mm
12:15 AM 10.9°F-11.7°C 2.8°F-16.2°C 69% 6.9 mph WNW11.1 kmh WNW 12.7 mph20.4 kmh 30.39 in1029.1 mb - 0.00 in0.0 mm 0.00 in0.0 mm
12:10 AM 11.1°F-11.6°C 2.6°F-16.3°C 68% 6.9 mph W11.1 kmh W 15.0 mph24.1 kmh 30.40 in1029.5 mb - 0.00 in0.0 mm 0.00 in0.0 mm
12:00 AM 11.3°F-11.5°C 2.8°F-16.2°C 68% 5.8 mph NW9.3 kmh NW 10.4 mph16.7 kmh 30.40 in1029.5 mb - 0.00 in0.0 mm 0.00 in0.0 mm